Time;durP1;ratioP1;P1;durP2;ratioP2;P2;SDS_P1;SDS_P2;PMS_P1;PMS_P2;Temp;Humidity;BMP_temperature;BMP_pressure;BME280_temperature;BME280_humidity;BME280_pressure;Samples;Min_cycle;Max_cycle;Signal;HPM_P1;HPM_P2
2022/05/07 00:00:49;;;;;;;7.63;4.25;;;;;;;;;;4951532;28;20812;-65
2022/05/07 00:03:14;;;;;;;7.88;5.00;;;;;;;;;;4949741;28;20455;-64
2022/05/07 00:05:40;;;;;;;7.57;4.45;;;;;;;;;;4949776;28;21190;-63
2022/05/07 00:08:06;;;;;;;9.15;4.25;;;;;;;;;;4950582;28;20466;-65
2022/05/07 00:10:31;;;;;;;7.65;4.30;;;;;;;;;;4950859;28;20408;-63
2022/05/07 00:12:57;;;;;;;6.47;4.15;;;;;;;;;;4949433;28;20430;-64
2022/05/07 00:15:23;;;;;;;9.68;4.00;;;;;;;;;;4949325;28;20501;-64
2022/05/07 00:18:07;;;;;;;6.55;3.70;;;;;;;;;;4932073;28;20517;-64
2022/05/07 00:20:33;;;;;;;9.82;4.57;;;;;;;;;;4950317;28;20096;-64
2022/05/07 00:23:00;;;;;;;8.88;4.22;;;;;;;;;;4949331;28;20344;-64
2022/05/07 00:25:26;;;;;;;6.38;3.70;;;;;;;;;;4949142;28;20030;-64
2022/05/07 00:27:52;;;;;;;6.75;4.00;;;;;;;;;;4950036;28;20052;-66
2022/05/07 00:30:17;;;;;;;7.45;4.35;;;;;;;;;;4949936;28;20413;-64
2022/05/07 00:32:43;;;;;;;6.63;3.97;;;;;;;;;;4950179;28;20344;-63
2022/05/07 00:35:11;;;;;;;6.95;4.47;;;;;;;;;;4950183;28;20033;-63
2022/05/07 00:37:37;;;;;;;7.75;4.47;;;;;;;;;;4952493;28;20341;-63
2022/05/07 00:40:04;;;;;;;7.43;4.13;;;;;;;;;;4953309;28;20453;-63
2022/05/07 00:42:29;;;;;;;8.77;4.47;;;;;;;;;;4954702;28;20311;-64
2022/05/07 00:44:54;;;;;;;6.85;3.97;;;;;;;;;;4953873;28;20105;-63
2022/05/07 00:47:28;;;;;;;8.55;4.47;;;;;;;;;;4953210;28;20334;-64
2022/05/07 00:49:56;;;;;;;6.57;4.05;;;;;;;;;;4953310;28;20494;-64
2022/05/07 00:52:22;;;;;;;9.82;4.97;;;;;;;;;;4953081;28;20033;-63
2022/05/07 00:54:47;;;;;;;7.60;4.43;;;;;;;;;;4953403;28;20441;-63
2022/05/07 00:57:14;;;;;;;6.00;3.45;;;;;;;;;;4953769;28;21856;-65
2022/05/07 00:59:41;;;;;;;7.25;4.40;;;;;;;;;;4951520;28;20333;-63
2022/05/07 01:02:07;;;;;;;7.95;4.25;;;;;;;;;;4952594;28;20475;-65
2022/05/07 01:04:33;;;;;;;8.57;4.45;;;;;;;;;;4953056;28;20462;-64
2022/05/07 01:07:01;;;;;;;9.15;4.55;;;;;;;;;;4935463;28;20452;-63
2022/05/07 01:09:27;;;;;;;8.37;4.13;;;;;;;;;;4952859;28;20451;-64
2022/05/07 01:11:52;;;;;;;8.90;4.65;;;;;;;;;;4935969;28;20413;-64
2022/05/07 01:14:17;;;;;;;7.75;4.35;;;;;;;;;;4935102;28;20438;-64
2022/05/07 01:16:43;;;;;;;7.38;3.97;;;;;;;;;;4951307;28;20338;-63
2022/05/07 01:19:08;;;;;;;8.70;4.10;;;;;;;;;;4953367;28;20539;-65
2022/05/07 01:21:35;;;;;;;7.72;4.28;;;;;;;;;;4952211;28;20373;-64
2022/05/07 01:24:01;;;;;;;7.13;4.30;;;;;;;;;;4953483;28;20311;-64
2022/05/07 01:26:26;;;;;;;9.00;4.53;;;;;;;;;;4951844;28;20357;-64
2022/05/07 01:28:58;;;;;;;6.93;3.92;;;;;;;;;;4953160;28;20085;-64
2022/05/07 01:31:26;;;;;;;5.75;3.60;;;;;;;;;;4952944;28;20445;-64
2022/05/07 01:33:52;;;;;;;5.88;3.58;;;;;;;;;;4952637;28;20516;-64
2022/05/07 01:36:19;;;;;;;5.78;4.03;;;;;;;;;;4952473;28;20500;-64
2022/05/07 01:38:45;;;;;;;6.75;4.00;;;;;;;;;;4953129;28;20393;-64
2022/05/07 01:41:10;;;;;;;7.68;4.30;;;;;;;;;;4953175;28;20370;-64
2022/05/07 01:43:35;;;;;;;6.55;4.32;;;;;;;;;;4952262;28;20409;-64
2022/05/07 01:46:01;;;;;;;8.30;4.68;;;;;;;;;;4916969;28;20485;-64
2022/05/07 01:48:27;;;;;;;7.13;3.92;;;;;;;;;;4951146;28;20033;-64
2022/05/07 01:50:52;;;;;;;6.00;3.50;;;;;;;;;;4953831;28;20341;-64
2022/05/07 01:53:17;;;;;;;5.50;3.80;;;;;;;;;;4953042;28;20396;-63
2022/05/07 01:55:43;;;;;;;6.68;3.85;;;;;;;;;;4951996;28;20539;-65
2022/05/07 01:58:09;;;;;;;8.77;4.43;;;;;;;;;;4951909;28;20034;-64
2022/05/07 02:00:34;;;;;;;8.55;3.85;;;;;;;;;;4952093;28;20049;-64
2022/05/07 02:03:00;;;;;;;8.80;3.70;;;;;;;;;;4951628;28;20370;-63
2022/05/07 02:05:26;;;;;;;7.70;4.03;;;;;;;;;;4951935;28;20373;-63
2022/05/07 02:07:52;;;;;;;7.53;4.20;;;;;;;;;;4951768;28;20422;-63
2022/05/07 02:10:18;;;;;;;6.80;4.30;;;;;;;;;;4951777;28;20385;-64
2022/05/07 02:12:43;;;;;;;6.43;4.15;;;;;;;;;;4951724;28;20400;-63
2022/05/07 02:15:09;;;;;;;6.72;4.18;;;;;;;;;;4951570;28;20450;-63
2022/05/07 02:17:34;;;;;;;6.00;3.58;;;;;;;;;;4951379;28;20465;-64
2022/05/07 02:19:59;;;;;;;5.78;3.65;;;;;;;;;;4952282;28;20398;-63
2022/05/07 02:22:25;;;;;;;7.35;4.03;;;;;;;;;;4952134;28;20441;-64
2022/05/07 02:24:51;;;;;;;6.63;4.10;;;;;;;;;;4951355;28;20113;-64
2022/05/07 02:27:16;;;;;;;6.20;4.05;;;;;;;;;;4952748;28;20370;-63
2022/05/07 02:29:42;;;;;;;8.77;4.50;;;;;;;;;;4951426;28;20429;-63
2022/05/07 02:32:07;;;;;;;6.85;4.25;;;;;;;;;;4951159;28;20416;-64
2022/05/07 02:34:33;;;;;;;5.28;3.67;;;;;;;;;;4952287;28;20436;-63
2022/05/07 02:36:59;;;;;;;8.23;4.55;;;;;;;;;;4951302;28;20464;-63
2022/05/07 02:39:25;;;;;;;8.77;4.70;;;;;;;;;;4951589;28;20417;-63
2022/05/07 02:44:35;;;;;;;7.05;4.07;;;;;;;;;;4951528;28;20476;-63
2022/05/07 02:47:00;;;;;;;6.63;4.25;;;;;;;;;;4952242;28;20406;-68
2022/05/07 02:49:25;;;;;;;7.93;3.92;;;;;;;;;;4951193;28;20345;-63
2022/05/07 02:51:51;;;;;;;6.88;3.63;;;;;;;;;;4951434;28;20508;-64
2022/05/07 02:54:17;;;;;;;7.68;4.03;;;;;;;;;;4950678;28;20430;-64
2022/05/07 02:56:42;;;;;;;6.15;3.63;;;;;;;;;;4950755;28;20405;-64
2022/05/07 02:59:07;;;;;;;5.95;3.58;;;;;;;;;;4950843;28;20381;-64
2022/05/07 03:01:33;;;;;;;7.50;4.20;;;;;;;;;;4950177;28;20125;-64
2022/05/07 03:03:58;;;;;;;7.97;4.40;;;;;;;;;;4950934;28;20029;-64
2022/05/07 03:06:23;;;;;;;7.88;3.90;;;;;;;;;;4950867;28;20474;-64
2022/05/07 03:08:49;;;;;;;6.20;4.10;;;;;;;;;;4951927;28;20393;-64
2022/05/07 03:11:14;;;;;;;6.22;4.30;;;;;;;;;;4950853;28;20437;-63
2022/05/07 03:13:40;;;;;;;7.60;4.55;;;;;;;;;;4950709;28;20030;-65
2022/05/07 03:16:06;;;;;;;5.47;3.55;;;;;;;;;;4950007;28;20516;-63
2022/05/07 03:18:32;;;;;;;8.63;4.72;;;;;;;;;;4950891;28;20364;-63
2022/05/07 03:20:58;;;;;;;6.80;4.20;;;;;;;;;;4950707;28;20048;-63
2022/05/07 03:23:25;;;;;;;6.53;3.60;;;;;;;;;;4950726;28;20432;-64
2022/05/07 03:25:50;;;;;;;7.28;4.13;;;;;;;;;;4950094;28;20049;-64
2022/05/07 03:28:16;;;;;;;9.13;4.03;;;;;;;;;;4950609;28;20600;-63
2022/05/07 03:30:42;;;;;;;7.40;4.32;;;;;;;;;;4950254;28;20404;-64
2022/05/07 03:33:08;;;;;;;6.28;3.83;;;;;;;;;;4949517;28;20445;-64
2022/05/07 03:35:33;;;;;;;8.38;4.03;;;;;;;;;;4950609;28;20345;-67
2022/05/07 03:37:58;;;;;;;6.63;4.13;;;;;;;;;;4950648;28;20342;-64
2022/05/07 03:40:24;;;;;;;6.75;3.75;;;;;;;;;;4949921;28;20457;-65
2022/05/07 03:42:49;;;;;;;6.38;4.10;;;;;;;;;;4952121;28;20444;-63
2022/05/07 03:45:14;;;;;;;6.47;3.85;;;;;;;;;;4949851;28;20425;-64
2022/05/07 03:47:39;;;;;;;5.03;3.53;;;;;;;;;;4949970;28;20433;-63
2022/05/07 03:50:06;;;;;;;5.55;3.65;;;;;;;;;;4931983;28;20170;-63
2022/05/07 03:55:16;;;;;;;6.88;4.05;;;;;;;;;;4949814;28;20096;-63
2022/05/07 03:57:41;;;;;;;4.95;3.45;;;;;;;;;;4950153;28;20468;-64
2022/05/07 04:00:07;;;;;;;6.05;3.50;;;;;;;;;;4950481;28;20520;-64
2022/05/07 04:02:35;;;;;;;6.25;3.85;;;;;;;;;;4950304;28;20433;-63
2022/05/07 04:05:03;;;;;;;5.88;3.53;;;;;;;;;;4950744;28;20361;-63
2022/05/07 04:07:28;;;;;;;6.18;3.95;;;;;;;;;;4949762;28;20030;-63
2022/05/07 04:09:55;;;;;;;5.82;4.05;;;;;;;;;;4949558;28;20053;-64
2022/05/07 04:12:21;;;;;;;6.97;4.18;;;;;;;;;;4949938;28;20457;-64
2022/05/07 04:14:46;;;;;;;4.88;3.45;;;;;;;;;;4949216;28;20413;-64
2022/05/07 04:17:11;;;;;;;6.60;4.00;;;;;;;;;;4951530;28;20026;-63
2022/05/07 04:19:37;;;;;;;5.25;3.63;;;;;;;;;;4950781;28;20397;-63
2022/05/07 04:22:02;;;;;;;7.47;3.83;;;;;;;;;;4949880;28;20437;-64
2022/05/07 04:24:28;;;;;;;5.68;3.58;;;;;;;;;;4950127;28;20627;-64
2022/05/07 04:26:54;;;;;;;8.35;4.10;;;;;;;;;;4949622;28;20452;-63
2022/05/07 04:29:19;;;;;;;6.93;3.80;;;;;;;;;;4949769;28;20422;-64
2022/05/07 04:31:45;;;;;;;5.82;4.03;;;;;;;;;;4949910;28;20481;-65
2022/05/07 04:34:11;;;;;;;5.78;4.05;;;;;;;;;;4949506;28;20048;-63
2022/05/07 04:36:36;;;;;;;9.30;3.72;;;;;;;;;;4951093;28;20319;-64
2022/05/07 04:39:02;;;;;;;6.35;3.28;;;;;;;;;;4950233;28;20105;-64
2022/05/07 04:41:27;;;;;;;5.45;3.33;;;;;;;;;;4949699;28;20503;-63
2022/05/07 04:43:53;;;;;;;6.15;3.58;;;;;;;;;;4949527;28;20504;-64
2022/05/07 04:46:18;;;;;;;6.05;3.53;;;;;;;;;;4950603;28;20433;-64
2022/05/07 04:48:45;;;;;;;5.97;3.72;;;;;;;;;;4950158;28;20473;-64
2022/05/07 04:51:10;;;;;;;6.55;3.95;;;;;;;;;;4949539;28;20437;-64
2022/05/07 04:53:35;;;;;;;4.85;3.25;;;;;;;;;;4949774;28;20148;-64
2022/05/07 04:56:01;;;;;;;5.82;3.58;;;;;;;;;;4951181;28;20420;-64
2022/05/07 04:58:26;;;;;;;5.55;3.10;;;;;;;;;;4949322;28;20434;-63
2022/05/07 05:00:52;;;;;;;7.50;4.13;;;;;;;;;;4949415;28;20505;-63
2022/05/07 05:03:17;;;;;;;6.65;4.00;;;;;;;;;;4949914;28;20365;-65
2022/05/07 05:05:44;;;;;;;8.35;3.83;;;;;;;;;;4948803;28;20535;-64
2022/05/07 05:08:10;;;;;;;5.30;3.42;;;;;;;;;;4949428;28;20509;-66
2022/05/07 05:10:35;;;;;;;4.65;3.30;;;;;;;;;;4949645;28;20569;-63
2022/05/07 05:13:00;;;;;;;6.32;3.60;;;;;;;;;;4950256;28;20329;-64
2022/05/07 05:15:26;;;;;;;6.18;3.28;;;;;;;;;;4948947;28;20540;-63
2022/05/07 05:17:52;;;;;;;4.60;3.35;;;;;;;;;;4950916;28;20402;-64
2022/05/07 05:20:17;;;;;;;8.35;3.47;;;;;;;;;;4949099;28;20053;-63
2022/05/07 05:22:48;;;;;;;4.97;3.72;;;;;;;;;;4949767;28;20441;-63
2022/05/07 05:25:14;;;;;;;5.50;3.10;;;;;;;;;;4953165;28;20333;-64
2022/05/07 05:27:39;;;;;;;4.43;2.95;;;;;;;;;;4953398;28;20034;-64
2022/05/07 05:30:05;;;;;;;5.50;3.30;;;;;;;;;;4952417;28;20322;-63
2022/05/07 05:32:30;;;;;;;6.13;3.30;;;;;;;;;;4952792;28;20093;-63
2022/05/07 05:34:56;;;;;;;7.70;3.50;;;;;;;;;;4952043;28;20360;-63
2022/05/07 05:37:24;;;;;;;6.65;3.38;;;;;;;;;;4951982;28;20487;-63
2022/05/07 05:39:49;;;;;;;5.05;3.20;;;;;;;;;;4952211;28;20353;-64
2022/05/07 05:42:15;;;;;;;5.90;3.30;;;;;;;;;;4953645;28;20096;-64
2022/05/07 05:44:41;;;;;;;4.50;2.90;;;;;;;;;;4952035;28;20380;-64
2022/05/07 05:47:08;;;;;;;5.93;3.20;;;;;;;;;;4952143;28;20416;-63
2022/05/07 05:49:34;;;;;;;6.03;3.50;;;;;;;;;;4952255;28;20413;-63
2022/05/07 05:52:01;;;;;;;7.80;2.97;;;;;;;;;;4951842;28;20406;-64
2022/05/07 05:54:27;;;;;;;4.43;2.95;;;;;;;;;;4953678;28;20341;-65
2022/05/07 05:56:53;;;;;;;4.82;3.35;;;;;;;;;;4952467;28;20357;-64
2022/05/07 05:59:18;;;;;;;6.72;3.65;;;;;;;;;;4952286;28;20049;-64
2022/05/07 06:01:43;;;;;;;5.35;3.42;;;;;;;;;;4952686;28;20447;-64
2022/05/07 06:04:09;;;;;;;5.20;3.15;;;;;;;;;;4951681;28;20042;-63
2022/05/07 06:06:34;;;;;;;3.90;3.13;;;;;;;;;;4952423;28;20045;-63
2022/05/07 06:08:59;;;;;;;5.20;3.47;;;;;;;;;;4953007;28;20436;-64
2022/05/07 06:11:25;;;;;;;4.35;2.60;;;;;;;;;;4951919;28;20022;-63
2022/05/07 06:13:50;;;;;;;4.88;2.67;;;;;;;;;;4952383;28;20025;-63
2022/05/07 06:16:17;;;;;;;3.75;2.70;;;;;;;;;;4933554;28;20050;-65
2022/05/07 06:18:42;;;;;;;5.10;3.38;;;;;;;;;;4951467;28;20357;-63
2022/05/07 06:21:08;;;;;;;4.60;2.42;;;;;;;;;;4951180;28;20121;-63
2022/05/07 06:23:33;;;;;;;6.32;3.38;;;;;;;;;;4951148;28;20501;-63
2022/05/07 06:28:42;;;;;;;3.92;2.75;;;;;;;;;;4952487;28;20060;-63
2022/05/07 06:31:10;;;;;;;5.32;3.00;;;;;;;;;;4951242;28;20488;-63
2022/05/07 06:33:38;;;;;;;4.63;3.15;;;;;;;;;;4950954;28;20345;-64
2022/05/07 06:36:05;;;;;;;5.47;3.10;;;;;;;;;;4951560;28;20539;-64
2022/05/07 06:38:30;;;;;;;4.70;2.83;;;;;;;;;;4951143;28;20368;-63
2022/05/07 06:40:56;;;;;;;5.28;2.92;;;;;;;;;;4951252;28;20402;-65
2022/05/07 06:43:22;;;;;;;4.55;2.75;;;;;;;;;;4950833;28;20026;-65
2022/05/07 06:45:48;;;;;;;3.67;2.90;;;;;;;;;;4952905;28;20096;-64
2022/05/07 06:48:13;;;;;;;6.90;3.10;;;;;;;;;;4951044;28;20037;-64
2022/05/07 06:50:39;;;;;;;4.78;2.85;;;;;;;;;;4952229;28;20323;-64
2022/05/07 06:53:04;;;;;;;4.40;2.95;;;;;;;;;;4951539;28;20330;-64
2022/05/07 06:55:32;;;;;;;4.40;2.83;;;;;;;;;;4951527;28;20373;-64
2022/05/07 06:57:58;;;;;;;5.55;2.92;;;;;;;;;;4950959;28;20445;-63
2022/05/07 07:00:24;;;;;;;5.13;2.80;;;;;;;;;;4951453;28;20129;-63
2022/05/07 07:02:50;;;;;;;3.65;2.67;;;;;;;;;;4950838;28;20497;-63
2022/05/07 07:05:15;;;;;;;5.03;2.53;;;;;;;;;;4951318;28;20400;-65
2022/05/07 07:07:40;;;;;;;4.28;2.80;;;;;;;;;;4951286;28;20508;-63
2022/05/07 07:10:06;;;;;;;2.95;2.38;;;;;;;;;;4950480;28;20411;-64
2022/05/07 07:12:32;;;;;;;4.68;2.78;;;;;;;;;;4950693;28;20417;-64
2022/05/07 07:14:57;;;;;;;4.43;3.38;;;;;;;;;;4949740;28;20112;-64
2022/05/07 07:17:27;;;;;;;4.63;2.58;;;;;;;;;;4950114;28;20048;-64
2022/05/07 07:19:53;;;;;;;5.45;2.90;;;;;;;;;;4950265;28;20410;-64
2022/05/07 07:22:18;;;;;;;5.15;3.25;;;;;;;;;;4932551;28;20425;-64
2022/05/07 07:24:43;;;;;;;4.28;2.53;;;;;;;;;;4950530;28;20417;-64
2022/05/07 07:27:09;;;;;;;4.70;2.80;;;;;;;;;;4950322;28;20441;-64
2022/05/07 07:29:34;;;;;;;4.90;2.72;;;;;;;;;;4950271;28;20484;-63
2022/05/07 07:31:59;;;;;;;4.35;2.70;;;;;;;;;;4950511;28;20349;-63
2022/05/07 07:34:25;;;;;;;6.25;2.67;;;;;;;;;;4950288;28;20465;-63
2022/05/07 07:36:50;;;;;;;4.70;3.22;;;;;;;;;;4950261;28;20402;-63
2022/05/07 07:39:17;;;;;;;4.65;2.60;;;;;;;;;;4951631;28;20505;-63
2022/05/07 07:41:43;;;;;;;3.42;2.35;;;;;;;;;;4950251;28;20453;-64
2022/05/07 07:44:09;;;;;;;3.55;2.35;;;;;;;;;;4950356;28;21266;-64
2022/05/07 07:49:18;;;;;;;4.00;2.40;;;;;;;;;;4950430;28;20456;-63
2022/05/07 07:51:43;;;;;;;2.90;2.30;;;;;;;;;;4950024;28;20430;-64
2022/05/07 07:54:08;;;;;;;3.83;2.70;;;;;;;;;;4950406;28;20457;-63
2022/05/07 07:56:34;;;;;;;3.40;2.53;;;;;;;;;;4949937;28;20413;-64
2022/05/07 07:59:00;;;;;;;3.17;2.28;;;;;;;;;;4950038;28;20441;-64
2022/05/07 08:01:26;;;;;;;4.18;2.70;;;;;;;;;;4950180;28;20373;-64
2022/05/07 08:03:51;;;;;;;3.13;2.22;;;;;;;;;;4949909;28;20353;-63
2022/05/07 08:06:17;;;;;;;3.83;2.50;;;;;;;;;;4951267;28;20410;-64
2022/05/07 08:11:42;;;;;;;4.60;2.28;;;;;;;;;;4951314;28;20344;-63
2022/05/07 08:14:08;;;;;;;4.68;2.80;;;;;;;;;;4949403;28;20501;-63
2022/05/07 08:16:34;;;;;;;3.45;2.35;;;;;;;;;;4949941;28;20440;-64
2022/05/07 08:18:59;;;;;;;3.95;2.53;;;;;;;;;;4949994;28;20437;-63
2022/05/07 08:21:25;;;;;;;5.30;2.65;;;;;;;;;;4950753;28;20056;-64
2022/05/07 08:23:50;;;;;;;6.70;3.15;;;;;;;;;;4931834;28;20389;-63
2022/05/07 08:26:15;;;;;;;5.50;2.95;;;;;;;;;;4949209;28;20137;-64
2022/05/07 08:28:41;;;;;;;4.05;2.17;;;;;;;;;;4948906;28;20361;-65
2022/05/07 08:31:07;;;;;;;3.33;2.40;;;;;;;;;;4949528;28;20394;-64
2022/05/07 08:33:33;;;;;;;4.47;2.50;;;;;;;;;;4950993;28;20472;-63
2022/05/07 08:35:59;;;;;;;3.97;2.17;;;;;;;;;;4949391;28;20433;-63
2022/05/07 08:38:25;;;;;;;4.07;2.35;;;;;;;;;;4949613;28;20104;-63
2022/05/07 08:40:51;;;;;;;2.80;1.98;;;;;;;;;;4949619;28;20034;-64
2022/05/07 08:43:16;;;;;;;3.33;1.83;;;;;;;;;;4932281;28;20394;-64
2022/05/07 08:45:42;;;;;;;4.20;2.67;;;;;;;;;;4949301;28;21332;-63
2022/05/07 08:48:08;;;;;;;3.95;2.60;;;;;;;;;;4949583;28;20453;-63
2022/05/07 08:50:33;;;;;;;2.78;2.10;;;;;;;;;;4948996;28;20034;-64
2022/05/07 08:52:59;;;;;;;3.50;2.33;;;;;;;;;;4951063;28;20026;-63
2022/05/07 08:55:24;;;;;;;3.75;2.30;;;;;;;;;;4949167;28;20368;-64
2022/05/07 08:57:51;;;;;;;3.25;2.33;;;;;;;;;;4951395;28;20425;-64
2022/05/07 09:00:22;;;;;;;3.30;2.42;;;;;;;;;;4953268;28;20377;-64
2022/05/07 09:02:53;;;;;;;5.00;2.47;;;;;;;;;;4953502;28;20026;-64
2022/05/07 09:05:20;;;;;;;3.53;2.45;;;;;;;;;;4954476;28;20444;-63
2022/05/07 09:07:57;;;;;;;3.30;1.77;;;;;;;;;;4952891;28;20441;-63
2022/05/07 09:10:27;;;;;;;3.55;2.38;;;;;;;;;;4953164;28;20057;-64
2022/05/07 09:12:53;;;;;;;4.72;2.40;;;;;;;;;;4953317;28;20056;-63
2022/05/07 09:15:19;;;;;;;2.85;1.92;;;;;;;;;;4952330;28;20365;-63
2022/05/07 09:17:47;;;;;;;3.88;2.22;;;;;;;;;;4954219;28;20049;-65
2022/05/07 09:20:14;;;;;;;3.53;2.10;;;;;;;;;;4918402;28;20433;-63
2022/05/07 09:23:06;;;;;;;4.90;2.58;;;;;;;;;;4953127;28;20445;-63
2022/05/07 09:25:32;;;;;;;4.00;2.55;;;;;;;;;;4950871;28;20708;-64
2022/05/07 09:27:57;;;;;;;5.32;2.08;;;;;;;;;;4953981;28;20413;-64
2022/05/07 09:30:30;;;;;;;2.97;2.22;;;;;;;;;;4953397;28;20076;-63
2022/05/07 09:32:56;;;;;;;3.90;2.13;;;;;;;;;;4952813;28;20449;-65
2022/05/07 09:38:10;;;;;;;4.40;2.15;;;;;;;;;;4953872;28;20188;-64
2022/05/07 09:40:40;;;;;;;4.72;2.78;;;;;;;;;;4952007;28;20042;-63
2022/05/07 09:43:07;;;;;;;3.85;2.30;;;;;;;;;;4951788;28;20111;-63
2022/05/07 09:45:33;;;;;;;4.80;2.45;;;;;;;;;;4934850;28;20349;-63
2022/05/07 09:47:58;;;;;;;2.80;2.10;;;;;;;;;;4934510;28;20338;-64
2022/05/07 09:58:38;;;;;;;5.45;2.20;;;;;;;;;;4954429;28;20504;-63
2022/05/07 10:01:22;;;;;;;4.50;2.33;;;;;;;;;;4953528;28;20441;-63
2022/05/07 10:04:04;;;;;;;3.42;1.58;;;;;;;;;;4952462;28;20489;-64
2022/05/07 10:07:05;;;;;;;4.00;2.17;;;;;;;;;;4951740;28;20488;-64
2022/05/07 10:09:42;;;;;;;3.55;2.28;;;;;;;;;;4949547;28;20365;-63
2022/05/07 10:12:09;;;;;;;2.78;2.05;;;;;;;;;;4951950;28;20357;-64
2022/05/07 10:14:34;;;;;;;2.47;1.60;;;;;;;;;;4933434;28;20418;-63
2022/05/07 10:17:07;;;;;;;3.03;2.20;;;;;;;;;;4933962;28;20372;-64
2022/05/07 10:19:39;;;;;;;2.30;1.75;;;;;;;;;;4951645;28;20427;-64
2022/05/07 10:22:26;;;;;;;4.32;2.15;;;;;;;;;;4951179;28;20345;-63
2022/05/07 10:25:05;;;;;;;5.63;2.08;;;;;;;;;;4952759;28;20433;-63
2022/05/07 10:27:33;;;;;;;3.45;1.92;;;;;;;;;;4952737;28;20422;-63
2022/05/07 10:30:21;;;;;;;2.67;1.77;;;;;;;;;;4951784;28;20445;-63
2022/05/07 10:32:58;;;;;;;3.95;2.10;;;;;;;;;;4951652;28;20413;-63
2022/05/07 10:35:39;;;;;;;2.47;1.50;;;;;;;;;;4951273;28;20326;-63
2022/05/07 10:38:09;;;;;;;3.05;2.10;;;;;;;;;;4952014;28;20433;-64
2022/05/07 10:40:34;;;;;;;3.10;1.90;;;;;;;;;;4951318;28;20496;-64
2022/05/07 10:43:00;;;;;;;4.30;1.80;;;;;;;;;;4950662;28;20445;-64
2022/05/07 10:45:25;;;;;;;2.38;1.77;;;;;;;;;;4949762;28;20129;-63
2022/05/07 10:47:57;;;;;;;4.28;1.98;;;;;;;;;;4933221;28;20048;-64
2022/05/07 10:50:23;;;;;;;3.40;2.08;;;;;;;;;;4950532;28;20547;-63
2022/05/07 10:52:56;;;;;;;3.45;1.95;;;;;;;;;;4951039;28;20425;-63
2022/05/07 10:55:26;;;;;;;2.67;2.03;;;;;;;;;;4950714;28;20325;-63
2022/05/07 10:57:52;;;;;;;3.40;1.67;;;;;;;;;;4951039;28;20413;-64
2022/05/07 11:00:24;;;;;;;5.40;2.10;;;;;;;;;;4951111;28;20451;-64
2022/05/07 11:02:55;;;;;;;3.33;1.98;;;;;;;;;;4949969;28;20529;-64
2022/05/07 11:05:31;;;;;;;2.10;1.55;;;;;;;;;;4950174;28;20432;-63
2022/05/07 11:07:58;;;;;;;3.20;2.00;;;;;;;;;;4951370;28;20418;-64
2022/05/07 11:10:24;;;;;;;2.47;1.70;;;;;;;;;;4949973;28;21748;-63
2022/05/07 11:12:49;;;;;;;2.25;1.60;;;;;;;;;;4949850;28;20345;-64
2022/05/07 11:15:22;;;;;;;2.78;1.80;;;;;;;;;;4949872;28;20445;-63
2022/05/07 11:17:47;;;;;;;2.17;1.80;;;;;;;;;;4950371;28;20053;-64
2022/05/07 11:20:13;;;;;;;3.05;2.33;;;;;;;;;;4949872;28;20512;-63
2022/05/07 11:22:40;;;;;;;4.93;2.15;;;;;;;;;;4932196;28;20389;-63
2022/05/07 11:25:05;;;;;;;3.60;1.92;;;;;;;;;;4950030;28;20361;-65
2022/05/07 11:27:34;;;;;;;2.72;1.77;;;;;;;;;;4951370;28;20341;-65
2022/05/07 11:30:05;;;;;;;3.85;1.75;;;;;;;;;;4950497;28;20453;-64
2022/05/07 11:32:41;;;;;;;3.50;2.10;;;;;;;;;;4950875;28;20393;-63
2022/05/07 11:35:07;;;;;;;3.13;2.10;;;;;;;;;;4950510;28;20334;-63
2022/05/07 11:37:42;;;;;;;5.28;1.48;;;;;;;;;;4950676;28;20417;-63
2022/05/07 11:40:09;;;;;;;3.08;1.73;;;;;;;;;;4950281;28;20025;-63
2022/05/07 11:42:46;;;;;;;3.58;2.15;;;;;;;;;;4950374;28;20121;-64
2022/05/07 11:45:33;;;;;;;3.72;1.85;;;;;;;;;;4949807;28;20449;-64
2022/05/07 11:48:02;;;;;;;4.97;2.15;;;;;;;;;;4950345;28;20318;-63
2022/05/07 11:50:31;;;;;;;;;;;;;;;;;;4950299;28;20599;-63
2022/05/07 11:53:18;;;;;;;3.38;1.73;;;;;;;;;;4950667;28;20418;-65
2022/05/07 11:55:45;;;;;;;4.20;2.00;;;;;;;;;;4949865;28;20473;-64
2022/05/07 11:58:23;;;;;;;5.40;2.63;;;;;;;;;;4949782;28;20592;-63
2022/05/07 12:00:51;;;;;;;3.45;1.92;;;;;;;;;;4950776;28;20508;-64
2022/05/07 12:03:25;;;;;;;3.55;1.90;;;;;;;;;;4950418;28;20526;-63
2022/05/07 12:05:51;;;;;;;2.15;1.60;;;;;;;;;;4950078;28;20402;-63
2022/05/07 12:08:24;;;;;;;2.97;1.90;;;;;;;;;;4932833;28;20373;-63
2022/05/07 12:10:51;;;;;;;2.78;1.70;;;;;;;;;;4949744;28;20386;-64
2022/05/07 12:13:18;;;;;;;2.53;1.80;;;;;;;;;;4949890;28;20298;-63
2022/05/07 12:18:30;;;;;;;3.38;2.15;;;;;;;;;;4951032;28;20381;-63
2022/05/07 12:20:56;;;;;;;2.58;1.88;;;;;;;;;;4949994;28;20026;-64
2022/05/07 12:31:33;;;;;;;3.53;2.38;;;;;;;;;;4950560;28;20468;-64
2022/05/07 12:33:59;;;;;;;3.28;1.90;;;;;;;;;;4952878;28;20445;-63
2022/05/07 12:36:24;;;;;;;2.65;1.67;;;;;;;;;;4953740;28;20428;-64
2022/05/07 12:38:49;;;;;;;3.53;2.08;;;;;;;;;;4953443;28;20500;-64
2022/05/07 12:41:15;;;;;;;3.08;1.95;;;;;;;;;;4954698;28;20344;-63
2022/05/07 12:43:40;;;;;;;5.68;2.00;;;;;;;;;;4953955;28;20324;-64
2022/05/07 12:46:06;;;;;;;2.85;1.70;;;;;;;;;;4954490;28;20322;-64
2022/05/07 12:48:32;;;;;;;2.63;1.70;;;;;;;;;;4953764;28;20468;-63
2022/05/07 12:50:57;;;;;;;2.17;1.73;;;;;;;;;;4953203;28;20033;-63
2022/05/07 12:53:23;;;;;;;2.90;1.50;;;;;;;;;;4954572;28;20495;-64
2022/05/07 12:56:02;;;;;;;3.28;1.75;;;;;;;;;;4952961;28;20381;-64
2022/05/07 12:58:27;;;;;;;2.92;1.48;;;;;;;;;;4953250;28;20514;-64
2022/05/07 13:00:52;;;;;;;3.28;1.75;;;;;;;;;;4952817;28;20433;-63
2022/05/07 13:03:18;;;;;;;3.30;1.80;;;;;;;;;;4953486;28;20034;-63
2022/05/07 13:05:43;;;;;;;5.22;2.10;;;;;;;;;;4952944;28;20433;-65
2022/05/07 13:08:09;;;;;;;3.65;1.90;;;;;;;;;;4953253;28;20456;-63
2022/05/07 13:10:34;;;;;;;4.00;1.75;;;;;;;;;;4953111;28;20400;-63
2022/05/07 13:13:00;;;;;;;3.33;1.75;;;;;;;;;;4952717;28;20112;-63
2022/05/07 13:15:28;;;;;;;3.65;1.80;;;;;;;;;;4952777;28;20492;-63
2022/05/07 13:17:57;;;;;;;3.13;1.92;;;;;;;;;;4952496;28;20018;-64
2022/05/07 13:21:02;;;;;;;5.03;1.60;;;;;;;;;;4935868;28;20361;-64
2022/05/07 13:23:27;;;;;;;3.47;1.90;;;;;;;;;;4952851;28;20352;-64
2022/05/07 13:25:52;;;;;;;3.90;1.70;;;;;;;;;;4952364;28;20445;-63
2022/05/07 13:28:18;;;;;;;1.95;1.38;;;;;;;;;;4953148;28;20433;-63
2022/05/07 13:30:43;;;;;;;2.63;1.85;;;;;;;;;;4953659;28;20497;-64
2022/05/07 13:33:08;;;;;;;2.95;2.00;;;;;;;;;;4935890;28;20727;-63
2022/05/07 13:35:34;;;;;;;2.25;1.80;;;;;;;;;;4954063;28;20404;-63
2022/05/07 13:37:59;;;;;;;2.45;1.90;;;;;;;;;;4952952;28;20428;-63
2022/05/07 13:40:24;;;;;;;3.58;1.70;;;;;;;;;;4952343;28;20433;-63
2022/05/07 13:42:50;;;;;;;4.75;1.83;;;;;;;;;;4952314;28;20361;-64
2022/05/07 13:45:15;;;;;;;3.58;2.00;;;;;;;;;;4951854;28;20541;-63
2022/05/07 13:47:41;;;;;;;1.98;1.40;;;;;;;;;;4952581;28;20345;-63
2022/05/07 13:50:08;;;;;;;6.22;1.75;;;;;;;;;;4952151;28;20056;-63
2022/05/07 13:52:38;;;;;;;3.08;1.70;;;;;;;;;;4952232;28;20441;-63
2022/05/07 13:55:06;;;;;;;1.48;1.30;;;;;;;;;;4952552;28;20444;-63
2022/05/07 13:57:31;;;;;;;2.65;1.60;;;;;;;;;;4951956;28;20476;-64
2022/05/07 13:59:57;;;;;;;3.33;1.48;;;;;;;;;;4951938;28;20323;-63
2022/05/07 14:02:22;;;;;;;3.15;1.80;;;;;;;;;;4951809;28;20495;-63
2022/05/07 14:04:49;;;;;;;2.70;1.70;;;;;;;;;;4951843;28;20415;-64
2022/05/07 14:07:15;;;;;;;2.17;1.35;;;;;;;;;;4953259;28;20333;-63
2022/05/07 14:09:47;;;;;;;2.97;1.63;;;;;;;;;;4951803;28;20109;-63
2022/05/07 14:12:12;;;;;;;2.50;1.42;;;;;;;;;;4951895;28;20053;-64
2022/05/07 14:14:37;;;;;;;2.42;1.70;;;;;;;;;;4952094;28;20041;-63
2022/05/07 14:17:03;;;;;;;2.22;1.90;;;;;;;;;;4952305;28;20432;-64
2022/05/07 14:19:28;;;;;;;2.80;1.48;;;;;;;;;;4952037;28;20378;-64
2022/05/07 14:21:53;;;;;;;4.13;1.60;;;;;;;;;;4952533;28;20314;-63
2022/05/07 14:24:19;;;;;;;2.55;1.38;;;;;;;;;;4951703;28;20483;-63
2022/05/07 14:26:44;;;;;;;3.88;1.92;;;;;;;;;;4952050;28;20323;-64
2022/05/07 14:29:09;;;;;;;2.45;1.35;;;;;;;;;;4952720;28;20496;-63
2022/05/07 14:31:35;;;;;;;3.20;1.73;;;;;;;;;;4952035;28;20537;-63
2022/05/07 14:34:01;;;;;;;2.70;1.65;;;;;;;;;;4933883;28;20044;-63
2022/05/07 14:36:29;;;;;;;3.35;1.50;;;;;;;;;;4951415;28;20105;-64
2022/05/07 14:38:55;;;;;;;2.47;1.67;;;;;;;;;;4951253;28;20456;-63
2022/05/07 14:41:20;;;;;;;2.03;1.30;;;;;;;;;;4933484;28;20352;-64
2022/05/07 14:43:46;;;;;;;2.20;1.50;;;;;;;;;;4951370;28;20361;-63
2022/05/07 14:46:11;;;;;;;2.95;1.58;;;;;;;;;;4951081;28;20116;-63
2022/05/07 14:48:36;;;;;;;2.88;1.60;;;;;;;;;;4951512;28;20370;-64
2022/05/07 14:51:02;;;;;;;3.25;1.73;;;;;;;;;;4951573;28;20454;-63
2022/05/07 14:53:27;;;;;;;2.28;1.50;;;;;;;;;;4950934;28;20420;-63
2022/05/07 14:55:52;;;;;;;3.72;1.38;;;;;;;;;;4951032;28;20432;-64
2022/05/07 14:58:18;;;;;;;2.17;1.60;;;;;;;;;;4951327;28;20408;-63
2022/05/07 15:00:43;;;;;;;2.95;1.63;;;;;;;;;;4951911;28;20329;-64
2022/05/07 15:03:09;;;;;;;2.78;1.55;;;;;;;;;;4951173;28;20473;-63
2022/05/07 15:05:34;;;;;;;2.25;1.83;;;;;;;;;;4950491;28;20508;-64
2022/05/07 15:10:35;;;;;;;3.20;1.20;;;;;;;;;;4951169;28;20511;-63
2022/05/07 15:10:45;;;;;;;2.03;1.38;;;;;;;;;;4950860;28;20029;-63
2022/05/07 15:13:11;;;;;;;3.05;1.42;;;;;;;;;;4932997;28;20337;-64
2022/05/07 15:15:36;;;;;;;3.70;2.00;;;;;;;;;;4950331;28;20381;-64
2022/05/07 15:18:02;;;;;;;2.25;1.40;;;;;;;;;;4950605;28;20421;-64